East Buffalo, Pennsylvania
Current Conditions -  °F | °C
As of 12:53 AM on Thursday 18 Dec 2014 (Local Time) from KSEG Reporting Station
Overcast Overcast  
Wind Chill: 27°   Ceiling: 4600
Heat Index: 34°   Visibility: 10mi
Dew Point: 22°   Wind: 8mph
Humidity: 61%   Direction: 270°W
Pressure: 30.02"   Gusts: 22mph
Location:  40.9885°N, 76.9787°W
Report Text: KSEG 180553Z AUTO 27007G19KT 10SM OVC046 01/M06 A3002 RMK AO2 SLP168 T00111056 10039 20011 53005
Loading
Personal Weather Stations






























Interactive Weather Map New forecast layout! Learn more

10-Day Weather Forecast

Advertisements
Track Severe Weather on mobile